sensor_id;sensor_type;location;lat;lon;timestamp;P1;durP1;ratioP1;P2;durP2;ratioP2
5801;SDS011;2927;49.366;8.530;2023-11-18T00:00:16;8.07;;;5.43;;
5801;SDS011;2927;49.366;8.530;2023-11-18T00:02:42;6.00;;;4.47;;
5801;SDS011;2927;49.366;8.530;2023-11-18T00:05:08;11.10;;;5.57;;
5801;SDS011;2927;49.366;8.530;2023-11-18T00:07:36;6.87;;;5.30;;
5801;SDS011;2927;49.366;8.530;2023-11-18T00:10:02;8.70;;;5.40;;
5801;SDS011;2927;49.366;8.530;2023-11-18T00:12:29;8.60;;;4.80;;
5801;SDS011;2927;49.366;8.530;2023-11-18T00:14:55;7.57;;;5.80;;
5801;SDS011;2927;49.366;8.530;2023-11-18T00:17:20;9.50;;;5.53;;
5801;SDS011;2927;49.366;8.530;2023-11-18T00:19:47;10.20;;;5.83;;
5801;SDS011;2927;49.366;8.530;2023-11-18T00:22:13;13.53;;;6.10;;
5801;SDS011;2927;49.366;8.530;2023-11-18T00:24:39;13.50;;;6.80;;
5801;SDS011;2927;49.366;8.530;2023-11-18T00:27:05;9.70;;;6.17;;
5801;SDS011;2927;49.366;8.530;2023-11-18T00:29:34;17.30;;;7.10;;
5801;SDS011;2927;49.366;8.530;2023-11-18T00:32:02;6.27;;;5.67;;
5801;SDS011;2927;49.366;8.530;2023-11-18T00:34:29;9.70;;;5.90;;
5801;SDS011;2927;49.366;8.530;2023-11-18T00:36:55;6.60;;;4.93;;
5801;SDS011;2927;49.366;8.530;2023-11-18T00:39:24;8.50;;;5.40;;
5801;SDS011;2927;49.366;8.530;2023-11-18T00:41:50;6.47;;;4.40;;
5801;SDS011;2927;49.366;8.530;2023-11-18T00:44:15;7.73;;;5.23;;
5801;SDS011;2927;49.366;8.530;2023-11-18T00:46:41;6.83;;;5.13;;
5801;SDS011;2927;49.366;8.530;2023-11-18T00:49:07;7.03;;;5.00;;
5801;SDS011;2927;49.366;8.530;2023-11-18T00:51:32;9.37;;;6.20;;
5801;SDS011;2927;49.366;8.530;2023-11-18T00:53:58;9.33;;;6.00;;
5801;SDS011;2927;49.366;8.530;2023-11-18T00:56:25;15.60;;;7.40;;
5801;SDS011;2927;49.366;8.530;2023-11-18T00:58:52;7.60;;;5.57;;
5801;SDS011;2927;49.366;8.530;2023-11-18T01:01:18;8.07;;;6.00;;
5801;SDS011;2927;49.366;8.530;2023-11-18T01:03:46;8.47;;;6.73;;
5801;SDS011;2927;49.366;8.530;2023-11-18T01:06:12;8.17;;;6.20;;
5801;SDS011;2927;49.366;8.530;2023-11-18T01:08:40;11.10;;;7.47;;
5801;SDS011;2927;49.366;8.530;2023-11-18T01:11:09;10.17;;;6.80;;
5801;SDS011;2927;49.366;8.530;2023-11-18T01:13:34;11.27;;;8.33;;
5801;SDS011;2927;49.366;8.530;2023-11-18T01:16:00;9.63;;;7.27;;
5801;SDS011;2927;49.366;8.530;2023-11-18T01:18:27;13.03;;;8.00;;
5801;SDS011;2927;49.366;8.530;2023-11-18T01:20:53;14.17;;;7.37;;
5801;SDS011;2927;49.366;8.530;2023-11-18T01:23:18;15.60;;;7.50;;
5801;SDS011;2927;49.366;8.530;2023-11-18T01:25:44;12.77;;;6.93;;
5801;SDS011;2927;49.366;8.530;2023-11-18T01:28:10;15.03;;;8.00;;
5801;SDS011;2927;49.366;8.530;2023-11-18T01:30:35;9.43;;;7.13;;
5801;SDS011;2927;49.366;8.530;2023-11-18T01:33:01;9.30;;;6.70;;
5801;SDS011;2927;49.366;8.530;2023-11-18T01:35:27;11.33;;;6.47;;
5801;SDS011;2927;49.366;8.530;2023-11-18T01:37:53;11.13;;;6.37;;
5801;SDS011;2927;49.366;8.530;2023-11-18T01:40:19;14.60;;;7.03;;
5801;SDS011;2927;49.366;8.530;2023-11-18T01:42:45;19.87;;;6.80;;
5801;SDS011;2927;49.366;8.530;2023-11-18T01:45:11;10.93;;;6.10;;
5801;SDS011;2927;49.366;8.530;2023-11-18T01:47:39;8.70;;;6.20;;
5801;SDS011;2927;49.366;8.530;2023-11-18T01:50:06;10.57;;;6.23;;
5801;SDS011;2927;49.366;8.530;2023-11-18T01:52:34;12.13;;;7.40;;
5801;SDS011;2927;49.366;8.530;2023-11-18T01:55:01;10.43;;;6.20;;
5801;SDS011;2927;49.366;8.530;2023-11-18T01:57:31;11.80;;;6.83;;
5801;SDS011;2927;49.366;8.530;2023-11-18T02:00:00;10.43;;;6.40;;
5801;SDS011;2927;49.366;8.530;2023-11-18T02:02:30;9.63;;;6.60;;
5801;SDS011;2927;49.366;8.530;2023-11-18T02:04:56;17.70;;;7.30;;
5801;SDS011;2927;49.366;8.530;2023-11-18T02:07:21;11.13;;;8.03;;
5801;SDS011;2927;49.366;8.530;2023-11-18T02:09:47;17.03;;;7.83;;
5801;SDS011;2927;49.366;8.530;2023-11-18T02:12:25;9.70;;;7.03;;
5801;SDS011;2927;49.366;8.530;2023-11-18T02:14:55;10.97;;;7.30;;
5801;SDS011;2927;49.366;8.530;2023-11-18T02:17:23;16.70;;;7.83;;
5801;SDS011;2927;49.366;8.530;2023-11-18T02:19:55;18.70;;;8.17;;
5801;SDS011;2927;49.366;8.530;2023-11-18T02:22:22;12.70;;;7.83;;
5801;SDS011;2927;49.366;8.530;2023-11-18T02:24:49;12.73;;;8.07;;
5801;SDS011;2927;49.366;8.530;2023-11-18T02:27:15;15.23;;;7.07;;
5801;SDS011;2927;49.366;8.530;2023-11-18T02:29:43;11.13;;;7.30;;
5801;SDS011;2927;49.366;8.530;2023-11-18T02:35:02;18.73;;;9.03;;
5801;SDS011;2927;49.366;8.530;2023-11-18T02:37:49;12.60;;;7.50;;
5801;SDS011;2927;49.366;8.530;2023-11-18T02:40:19;16.40;;;8.20;;
5801;SDS011;2927;49.366;8.530;2023-11-18T02:42:48;11.57;;;7.87;;
5801;SDS011;2927;49.366;8.530;2023-11-18T02:45:18;13.33;;;7.83;;
5801;SDS011;2927;49.366;8.530;2023-11-18T02:47:45;14.40;;;8.17;;
5801;SDS011;2927;49.366;8.530;2023-11-18T02:50:12;10.80;;;7.23;;
5801;SDS011;2927;49.366;8.530;2023-11-18T02:52:38;14.50;;;8.13;;
5801;SDS011;2927;49.366;8.530;2023-11-18T02:55:05;13.20;;;8.27;;
5801;SDS011;2927;49.366;8.530;2023-11-18T02:57:34;15.63;;;8.80;;
5801;SDS011;2927;49.366;8.530;2023-11-18T03:00:00;12.07;;;8.60;;
5801;SDS011;2927;49.366;8.530;2023-11-18T03:02:27;13.00;;;7.83;;
5801;SDS011;2927;49.366;8.530;2023-11-18T03:04:56;12.13;;;8.40;;
5801;SDS011;2927;49.366;8.530;2023-11-18T03:07:25;13.63;;;8.10;;
5801;SDS011;2927;49.366;8.530;2023-11-18T03:09:55;28.87;;;9.10;;
5801;SDS011;2927;49.366;8.530;2023-11-18T03:12:22;18.57;;;9.40;;
5801;SDS011;2927;49.366;8.530;2023-11-18T03:14:48;14.13;;;8.33;;
5801;SDS011;2927;49.366;8.530;2023-11-18T03:17:14;15.00;;;8.50;;
5801;SDS011;2927;49.366;8.530;2023-11-18T03:19:40;18.30;;;9.33;;
5801;SDS011;2927;49.366;8.530;2023-11-18T03:22:06;13.87;;;7.93;;
5801;SDS011;2927;49.366;8.530;2023-11-18T03:24:32;11.40;;;7.53;;
5801;SDS011;2927;49.366;8.530;2023-11-18T03:26:58;16.63;;;8.20;;
5801;SDS011;2927;49.366;8.530;2023-11-18T03:29:23;16.70;;;9.50;;
5801;SDS011;2927;49.366;8.530;2023-11-18T03:31:49;19.00;;;9.33;;
5801;SDS011;2927;49.366;8.530;2023-11-18T03:34:15;12.27;;;7.73;;
5801;SDS011;2927;49.366;8.530;2023-11-18T03:36:41;18.17;;;7.93;;
5801;SDS011;2927;49.366;8.530;2023-11-18T03:39:10;15.00;;;8.90;;
5801;SDS011;2927;49.366;8.530;2023-11-18T03:41:36;12.87;;;9.30;;
5801;SDS011;2927;49.366;8.530;2023-11-18T03:44:02;15.00;;;9.10;;
5801;SDS011;2927;49.366;8.530;2023-11-18T03:46:28;13.87;;;8.77;;
5801;SDS011;2927;49.366;8.530;2023-11-18T03:48:56;15.10;;;8.83;;
5801;SDS011;2927;49.366;8.530;2023-11-18T03:51:21;16.83;;;8.47;;
5801;SDS011;2927;49.366;8.530;2023-11-18T03:53:47;12.17;;;8.40;;
5801;SDS011;2927;49.366;8.530;2023-11-18T03:56:16;28.97;;;8.83;;
5801;SDS011;2927;49.366;8.530;2023-11-18T03:58:43;16.83;;;8.63;;
5801;SDS011;2927;49.366;8.530;2023-11-18T04:01:09;15.23;;;9.27;;
5801;SDS011;2927;49.366;8.530;2023-11-18T04:03:36;15.23;;;8.93;;
5801;SDS011;2927;49.366;8.530;2023-11-18T04:06:01;16.37;;;8.57;;
5801;SDS011;2927;49.366;8.530;2023-11-18T04:08:28;18.70;;;9.50;;
5801;SDS011;2927;49.366;8.530;2023-11-18T04:10:54;15.67;;;9.43;;
5801;SDS011;2927;49.366;8.530;2023-11-18T04:13:19;18.83;;;10.43;;
5801;SDS011;2927;49.366;8.530;2023-11-18T04:15:45;17.77;;;9.83;;
5801;SDS011;2927;49.366;8.530;2023-11-18T04:18:10;18.17;;;9.23;;
5801;SDS011;2927;49.366;8.530;2023-11-18T04:20:36;23.43;;;11.10;;
5801;SDS011;2927;49.366;8.530;2023-11-18T04:23:02;17.87;;;10.13;;
5801;SDS011;2927;49.366;8.530;2023-11-18T04:25:27;18.13;;;10.03;;
5801;SDS011;2927;49.366;8.530;2023-11-18T04:27:53;18.40;;;9.80;;
5801;SDS011;2927;49.366;8.530;2023-11-18T04:30:18;17.90;;;11.17;;
5801;SDS011;2927;49.366;8.530;2023-11-18T04:32:44;17.93;;;9.60;;
5801;SDS011;2927;49.366;8.530;2023-11-18T04:35:10;21.50;;;10.90;;
5801;SDS011;2927;49.366;8.530;2023-11-18T04:37:37;24.77;;;11.80;;
5801;SDS011;2927;49.366;8.530;2023-11-18T04:40:03;25.67;;;11.90;;
5801;SDS011;2927;49.366;8.530;2023-11-18T04:42:29;24.33;;;11.97;;
5801;SDS011;2927;49.366;8.530;2023-11-18T04:44:55;19.57;;;10.93;;
5801;SDS011;2927;49.366;8.530;2023-11-18T04:47:21;24.77;;;11.10;;
5801;SDS011;2927;49.366;8.530;2023-11-18T04:49:47;25.87;;;12.87;;
5801;SDS011;2927;49.366;8.530;2023-11-18T04:52:13;27.13;;;12.50;;
5801;SDS011;2927;49.366;8.530;2023-11-18T04:54:38;29.50;;;11.73;;
5801;SDS011;2927;49.366;8.530;2023-11-18T04:57:04;46.30;;;12.10;;
5801;SDS011;2927;49.366;8.530;2023-11-18T04:59:29;42.77;;;11.83;;
5801;SDS011;2927;49.366;8.530;2023-11-18T05:01:58;43.93;;;13.10;;
5801;SDS011;2927;49.366;8.530;2023-11-18T05:04:23;53.93;;;11.23;;
5801;SDS011;2927;49.366;8.530;2023-11-18T05:06:49;36.53;;;11.90;;
5801;SDS011;2927;49.366;8.530;2023-11-18T05:09:14;28.73;;;12.23;;
5801;SDS011;2927;49.366;8.530;2023-11-18T05:11:43;31.87;;;12.30;;
5801;SDS011;2927;49.366;8.530;2023-11-18T05:14:09;39.23;;;12.07;;
5801;SDS011;2927;49.366;8.530;2023-11-18T05:16:36;32.17;;;11.80;;
5801;SDS011;2927;49.366;8.530;2023-11-18T05:19:01;38.13;;;13.67;;
5801;SDS011;2927;49.366;8.530;2023-11-18T05:21:27;36.23;;;12.47;;
5801;SDS011;2927;49.366;8.530;2023-11-18T05:23:53;27.63;;;13.17;;
5801;SDS011;2927;49.366;8.530;2023-11-18T05:26:19;31.47;;;13.27;;
5801;SDS011;2927;49.366;8.530;2023-11-18T05:28:44;32.10;;;13.50;;
5801;SDS011;2927;49.366;8.530;2023-11-18T05:31:10;33.47;;;14.70;;
5801;SDS011;2927;49.366;8.530;2023-11-18T05:33:36;36.07;;;14.27;;
5801;SDS011;2927;49.366;8.530;2023-11-18T05:36:02;37.67;;;15.30;;
5801;SDS011;2927;49.366;8.530;2023-11-18T05:38:30;39.43;;;17.27;;
5801;SDS011;2927;49.366;8.530;2023-11-18T05:40:59;34.30;;;15.00;;
5801;SDS011;2927;49.366;8.530;2023-11-18T05:43:28;43.27;;;15.53;;
5801;SDS011;2927;49.366;8.530;2023-11-18T05:46:01;34.30;;;16.50;;
5801;SDS011;2927;49.366;8.530;2023-11-18T05:48:45;35.90;;;15.77;;
5801;SDS011;2927;49.366;8.530;2023-11-18T05:51:12;43.40;;;17.20;;
5801;SDS011;2927;49.366;8.530;2023-11-18T05:53:41;37.07;;;16.80;;
5801;SDS011;2927;49.366;8.530;2023-11-18T05:56:14;36.03;;;18.20;;
5801;SDS011;2927;49.366;8.530;2023-11-18T05:58:43;43.03;;;18.23;;
5801;SDS011;2927;49.366;8.530;2023-11-18T06:01:11;45.40;;;17.03;;
5801;SDS011;2927;49.366;8.530;2023-11-18T06:03:41;44.90;;;17.57;;
5801;SDS011;2927;49.366;8.530;2023-11-18T06:06:08;47.67;;;16.17;;
5801;SDS011;2927;49.366;8.530;2023-11-18T06:08:35;49.83;;;18.90;;
5801;SDS011;2927;49.366;8.530;2023-11-18T06:11:06;47.30;;;18.43;;
5801;SDS011;2927;49.366;8.530;2023-11-18T06:13:41;54.73;;;18.53;;
5801;SDS011;2927;49.366;8.530;2023-11-18T06:16:24;57.00;;;18.73;;
5801;SDS011;2927;49.366;8.530;2023-11-18T06:18:51;51.93;;;18.67;;
5801;SDS011;2927;49.366;8.530;2023-11-18T06:21:22;46.73;;;16.70;;
5801;SDS011;2927;49.366;8.530;2023-11-18T06:23:50;68.93;;;16.70;;
5801;SDS011;2927;49.366;8.530;2023-11-18T06:26:16;51.40;;;15.53;;
5801;SDS011;2927;49.366;8.530;2023-11-18T06:28:43;53.67;;;17.33;;
5801;SDS011;2927;49.366;8.530;2023-11-18T06:31:10;54.73;;;15.67;;
5801;SDS011;2927;49.366;8.530;2023-11-18T06:33:43;73.47;;;19.57;;
5801;SDS011;2927;49.366;8.530;2023-11-18T06:36:16;58.60;;;18.43;;
5801;SDS011;2927;49.366;8.530;2023-11-18T06:38:42;44.40;;;17.20;;
5801;SDS011;2927;49.366;8.530;2023-11-18T06:41:12;39.23;;;16.00;;
5801;SDS011;2927;49.366;8.530;2023-11-18T06:43:40;37.90;;;16.30;;
5801;SDS011;2927;49.366;8.530;2023-11-18T06:46:19;51.00;;;16.70;;
5801;SDS011;2927;49.366;8.530;2023-11-18T06:48:54;34.70;;;15.70;;
5801;SDS011;2927;49.366;8.530;2023-11-18T06:51:20;33.83;;;15.03;;
5801;SDS011;2927;49.366;8.530;2023-11-18T06:53:56;38.57;;;15.20;;
5801;SDS011;2927;49.366;8.530;2023-11-18T06:56:25;35.43;;;13.77;;
5801;SDS011;2927;49.366;8.530;2023-11-18T06:58:52;31.73;;;13.30;;
5801;SDS011;2927;49.366;8.530;2023-11-18T07:01:18;35.67;;;13.67;;
5801;SDS011;2927;49.366;8.530;2023-11-18T07:03:46;32.20;;;13.40;;
5801;SDS011;2927;49.366;8.530;2023-11-18T07:06:19;32.10;;;12.40;;
5801;SDS011;2927;49.366;8.530;2023-11-18T07:08:48;32.53;;;13.20;;
5801;SDS011;2927;49.366;8.530;2023-11-18T07:11:15;40.13;;;13.77;;
5801;SDS011;2927;49.366;8.530;2023-11-18T07:13:42;34.57;;;12.90;;
5801;SDS011;2927;49.366;8.530;2023-11-18T07:16:08;34.93;;;13.10;;
5801;SDS011;2927;49.366;8.530;2023-11-18T07:18:35;38.97;;;14.83;;
5801;SDS011;2927;49.366;8.530;2023-11-18T07:21:02;38.13;;;14.10;;
5801;SDS011;2927;49.366;8.530;2023-11-18T07:23:31;32.60;;;13.23;;
5801;SDS011;2927;49.366;8.530;2023-11-18T07:25:57;33.27;;;13.53;;
5801;SDS011;2927;49.366;8.530;2023-11-18T07:28:23;35.37;;;12.97;;
5801;SDS011;2927;49.366;8.530;2023-11-18T07:30:48;34.80;;;13.27;;
5801;SDS011;2927;49.366;8.530;2023-11-18T07:33:14;44.77;;;12.40;;
5801;SDS011;2927;49.366;8.530;2023-11-18T07:35:41;30.63;;;13.60;;
5801;SDS011;2927;49.366;8.530;2023-11-18T07:38:07;39.00;;;13.43;;
5801;SDS011;2927;49.366;8.530;2023-11-18T07:40:33;27.33;;;12.90;;
5801;SDS011;2927;49.366;8.530;2023-11-18T07:42:59;28.43;;;13.80;;
5801;SDS011;2927;49.366;8.530;2023-11-18T07:45:28;28.50;;;12.73;;
5801;SDS011;2927;49.366;8.530;2023-11-18T07:48:02;28.23;;;12.97;;
5801;SDS011;2927;49.366;8.530;2023-11-18T07:50:31;31.07;;;12.93;;
5801;SDS011;2927;49.366;8.530;2023-11-18T07:53:09;28.90;;;13.03;;
5801;SDS011;2927;49.366;8.530;2023-11-18T07:55:36;25.23;;;11.83;;
5801;SDS011;2927;49.366;8.530;2023-11-18T07:58:13;35.23;;;13.07;;
5801;SDS011;2927;49.366;8.530;2023-11-18T08:00:39;40.67;;;12.00;;
5801;SDS011;2927;49.366;8.530;2023-11-18T08:03:06;26.13;;;11.90;;
5801;SDS011;2927;49.366;8.530;2023-11-18T08:05:36;27.20;;;12.57;;
5801;SDS011;2927;49.366;8.530;2023-11-18T08:08:14;26.70;;;13.13;;
5801;SDS011;2927;49.366;8.530;2023-11-18T08:10:43;32.40;;;12.80;;
5801;SDS011;2927;49.366;8.530;2023-11-18T08:13:09;24.00;;;11.10;;
5801;SDS011;2927;49.366;8.530;2023-11-18T08:15:39;37.20;;;12.60;;
5801;SDS011;2927;49.366;8.530;2023-11-18T08:18:07;28.60;;;12.90;;
5801;SDS011;2927;49.366;8.530;2023-11-18T08:20:35;29.03;;;11.20;;
5801;SDS011;2927;49.366;8.530;2023-11-18T08:23:01;31.63;;;12.13;;
5801;SDS011;2927;49.366;8.530;2023-11-18T08:25:26;28.23;;;12.10;;
5801;SDS011;2927;49.366;8.530;2023-11-18T08:27:52;24.33;;;12.30;;
5801;SDS011;2927;49.366;8.530;2023-11-18T08:30:17;31.37;;;13.50;;
5801;SDS011;2927;49.366;8.530;2023-11-18T08:32:45;27.57;;;13.23;;
5801;SDS011;2927;49.366;8.530;2023-11-18T08:35:14;32.57;;;14.70;;
5801;SDS011;2927;49.366;8.530;2023-11-18T08:37:43;31.03;;;13.30;;
5801;SDS011;2927;49.366;8.530;2023-11-18T08:40:09;33.07;;;13.50;;
5801;SDS011;2927;49.366;8.530;2023-11-18T08:42:47;31.83;;;13.83;;
5801;SDS011;2927;49.366;8.530;2023-11-18T08:45:48;37.03;;;15.03;;
5801;SDS011;2927;49.366;8.530;2023-11-18T08:48:06;33.43;;;13.57;;
5801;SDS011;2927;49.366;8.530;2023-11-18T08:50:33;25.80;;;12.70;;
5801;SDS011;2927;49.366;8.530;2023-11-18T08:52:59;30.63;;;12.67;;
5801;SDS011;2927;49.366;8.530;2023-11-18T08:55:29;27.57;;;14.07;;
5801;SDS011;2927;49.366;8.530;2023-11-18T08:58:05;26.33;;;13.30;;
5801;SDS011;2927;49.366;8.530;2023-11-18T09:00:44;29.67;;;12.97;;
5801;SDS011;2927;49.366;8.530;2023-11-18T09:03:19;31.90;;;13.63;;
5801;SDS011;2927;49.366;8.530;2023-11-18T09:05:53;27.60;;;13.47;;
5801;SDS011;2927;49.366;8.530;2023-11-18T09:08:44;26.67;;;12.93;;
5801;SDS011;2927;49.366;8.530;2023-11-18T09:11:11;22.53;;;11.40;;
5801;SDS011;2927;49.366;8.530;2023-11-18T09:13:46;24.10;;;12.10;;
5801;SDS011;2927;49.366;8.530;2023-11-18T09:16:18;22.27;;;12.50;;
5801;SDS011;2927;49.366;8.530;2023-11-18T09:18:47;22.77;;;13.10;;
5801;SDS011;2927;49.366;8.530;2023-11-18T09:21:14;29.23;;;12.43;;
5801;SDS011;2927;49.366;8.530;2023-11-18T09:23:43;19.73;;;12.83;;
5801;SDS011;2927;49.366;8.530;2023-11-18T09:26:09;17.40;;;11.83;;
5801;SDS011;2927;49.366;8.530;2023-11-18T09:28:36;21.00;;;11.17;;
5801;SDS011;2927;49.366;8.530;2023-11-18T09:31:02;19.60;;;10.30;;
5801;SDS011;2927;49.366;8.530;2023-11-18T09:33:30;19.40;;;12.30;;
5801;SDS011;2927;49.366;8.530;2023-11-18T09:36:03;26.40;;;12.47;;
5801;SDS011;2927;49.366;8.530;2023-11-18T09:38:34;25.53;;;11.80;;
5801;SDS011;2927;49.366;8.530;2023-11-18T09:41:01;18.50;;;10.37;;
5801;SDS011;2927;49.366;8.530;2023-11-18T09:43:31;24.10;;;11.97;;
5801;SDS011;2927;49.366;8.530;2023-11-18T09:46:07;19.47;;;12.53;;
5801;SDS011;2927;49.366;8.530;2023-11-18T09:48:47;21.53;;;12.27;;
5801;SDS011;2927;49.366;8.530;2023-11-18T09:51:21;32.80;;;13.10;;
5801;SDS011;2927;49.366;8.530;2023-11-18T09:53:52;17.93;;;10.03;;
5801;SDS011;2927;49.366;8.530;2023-11-18T09:56:23;20.37;;;10.67;;
5801;SDS011;2927;49.366;8.530;2023-11-18T10:01:40;14.13;;;8.70;;
5801;SDS011;2927;49.366;8.530;2023-11-18T10:04:09;16.80;;;10.20;;
5801;SDS011;2927;49.366;8.530;2023-11-18T10:06:37;13.07;;;8.47;;
5801;SDS011;2927;49.366;8.530;2023-11-18T10:09:06;11.20;;;7.60;;
5801;SDS011;2927;49.366;8.530;2023-11-18T10:11:42;11.13;;;7.37;;
5801;SDS011;2927;49.366;8.530;2023-11-18T10:14:08;11.90;;;7.53;;
5801;SDS011;2927;49.366;8.530;2023-11-18T10:16:35;19.47;;;7.43;;
5801;SDS011;2927;49.366;8.530;2023-11-18T10:19:03;10.03;;;6.83;;
5801;SDS011;2927;49.366;8.530;2023-11-18T10:21:37;7.50;;;5.90;;
5801;SDS011;2927;49.366;8.530;2023-11-18T10:24:04;9.10;;;5.43;;
5801;SDS011;2927;49.366;8.530;2023-11-18T10:26:37;14.43;;;7.70;;
5801;SDS011;2927;49.366;8.530;2023-11-18T10:29:03;11.87;;;7.00;;
5801;SDS011;2927;49.366;8.530;2023-11-18T10:31:33;7.27;;;4.90;;
5801;SDS011;2927;49.366;8.530;2023-11-18T10:34:03;10.87;;;7.30;;
5801;SDS011;2927;49.366;8.530;2023-11-18T10:36:29;11.10;;;5.77;;
5801;SDS011;2927;49.366;8.530;2023-11-18T10:38:58;7.43;;;5.10;;
5801;SDS011;2927;49.366;8.530;2023-11-18T10:41:26;8.40;;;6.20;;
5801;SDS011;2927;49.366;8.530;2023-11-18T10:44:05;8.83;;;5.03;;
5801;SDS011;2927;49.366;8.530;2023-11-18T10:46:38;12.87;;;6.40;;
5801;SDS011;2927;49.366;8.530;2023-11-18T10:49:05;10.50;;;5.67;;
5801;SDS011;2927;49.366;8.530;2023-11-18T10:51:35;6.77;;;5.67;;
5801;SDS011;2927;49.366;8.530;2023-11-18T10:54:00;10.63;;;5.90;;
5801;SDS011;2927;49.366;8.530;2023-11-18T10:56:28;7.00;;;5.30;;
5801;SDS011;2927;49.366;8.530;2023-11-18T10:59:06;9.30;;;5.80;;
5801;SDS011;2927;49.366;8.530;2023-11-18T11:01:33;7.57;;;5.53;;
5801;SDS011;2927;49.366;8.530;2023-11-18T11:04:04;5.97;;;4.50;;
5801;SDS011;2927;49.366;8.530;2023-11-18T11:06:31;6.80;;;4.63;;
5801;SDS011;2927;49.366;8.530;2023-11-18T11:08:58;8.33;;;5.13;;
5801;SDS011;2927;49.366;8.530;2023-11-18T11:11:24;7.07;;;4.60;;
5801;SDS011;2927;49.366;8.530;2023-11-18T11:13:57;5.70;;;4.60;;
5801;SDS011;2927;49.366;8.530;2023-11-18T11:16:33;4.47;;;4.00;;
5801;SDS011;2927;49.366;8.530;2023-11-18T11:19:20;6.47;;;4.83;;
5801;SDS011;2927;49.366;8.530;2023-11-18T11:22:05;8.90;;;4.27;;
5801;SDS011;2927;49.366;8.530;2023-11-18T11:27:14;5.07;;;3.80;;
5801;SDS011;2927;49.366;8.530;2023-11-18T11:29:59;4.40;;;3.70;;
5801;SDS011;2927;49.366;8.530;2023-11-18T11:32:52;4.43;;;3.50;;
5801;SDS011;2927;49.366;8.530;2023-11-18T11:35:33;3.30;;;2.97;;
5801;SDS011;2927;49.366;8.530;2023-11-18T11:38:05;5.13;;;3.00;;
5801;SDS011;2927;49.366;8.530;2023-11-18T11:40:37;6.07;;;4.00;;
5801;SDS011;2927;49.366;8.530;2023-11-18T11:43:07;6.87;;;4.50;;
5801;SDS011;2927;49.366;8.530;2023-11-18T11:45:35;3.07;;;2.77;;
5801;SDS011;2927;49.366;8.530;2023-11-18T11:48:02;5.70;;;3.17;;
5801;SDS011;2927;49.366;8.530;2023-11-18T11:53:30;4.57;;;3.50;;
5801;SDS011;2927;49.366;8.530;2023-11-18T11:56:01;3.00;;;2.70;;
5801;SDS011;2927;49.366;8.530;2023-11-18T11:58:34;4.00;;;2.60;;
5801;SDS011;2927;49.366;8.530;2023-11-18T12:03:58;2.60;;;2.30;;
5801;SDS011;2927;49.366;8.530;2023-11-18T12:06:32;5.77;;;2.40;;
5801;SDS011;2927;49.366;8.530;2023-11-18T12:09:00;3.00;;;1.83;;
5801;SDS011;2927;49.366;8.530;2023-11-18T12:11:32;7.20;;;2.50;;
5801;SDS011;2927;49.366;8.530;2023-11-18T12:14:05;5.23;;;2.40;;
5801;SDS011;2927;49.366;8.530;2023-11-18T12:19:28;6.50;;;2.60;;
5801;SDS011;2927;49.366;8.530;2023-11-18T12:21:55;3.60;;;1.73;;
5801;SDS011;2927;49.366;8.530;2023-11-18T12:24:20;3.50;;;2.53;;
5801;SDS011;2927;49.366;8.530;2023-11-18T12:26:47;5.73;;;2.40;;
5801;SDS011;2927;49.366;8.530;2023-11-18T12:29:30;6.90;;;1.67;;
5801;SDS011;2927;49.366;8.530;2023-11-18T12:32:03;2.27;;;2.00;;
5801;SDS011;2927;49.366;8.530;2023-11-18T12:34:49;2.30;;;2.10;;
5801;SDS011;2927;49.366;8.530;2023-11-18T12:42:58;4.40;;;2.30;;
5801;SDS011;2927;49.366;8.530;2023-11-18T12:48:16;6.07;;;4.03;;
5801;SDS011;2927;49.366;8.530;2023-11-18T12:50:51;3.70;;;2.60;;
5801;SDS011;2927;49.366;8.530;2023-11-18T12:53:20;9.83;;;3.50;;
5801;SDS011;2927;49.366;8.530;2023-11-18T12:55:49;6.43;;;1.80;;
5801;SDS011;2927;49.366;8.530;2023-11-18T12:58:15;2.83;;;2.50;;
5801;SDS011;2927;49.366;8.530;2023-11-18T13:00:43;3.80;;;1.60;;
5801;SDS011;2927;49.366;8.530;2023-11-18T13:03:10;1.90;;;1.53;;
5801;SDS011;2927;49.366;8.530;2023-11-18T13:05:36;4.20;;;3.07;;
5801;SDS011;2927;49.366;8.530;2023-11-18T13:08:02;6.07;;;3.13;;
5801;SDS011;2927;49.366;8.530;2023-11-18T13:10:31;1.83;;;1.30;;
5801;SDS011;2927;49.366;8.530;2023-11-18T13:12:57;1.23;;;1.10;;
5801;SDS011;2927;49.366;8.530;2023-11-18T13:15:25;5.80;;;1.63;;
5801;SDS011;2927;49.366;8.530;2023-11-18T13:18:00;5.63;;;1.40;;
5801;SDS011;2927;49.366;8.530;2023-11-18T13:20:31;4.30;;;1.93;;
5801;SDS011;2927;49.366;8.530;2023-11-18T13:23:00;1.80;;;1.47;;
5801;SDS011;2927;49.366;8.530;2023-11-18T13:25:26;6.20;;;1.70;;
5801;SDS011;2927;49.366;8.530;2023-11-18T13:27:51;2.17;;;1.50;;
5801;SDS011;2927;49.366;8.530;2023-11-18T13:30:19;2.30;;;1.40;;
5801;SDS011;2927;49.366;8.530;2023-11-18T13:32:45;1.10;;;1.00;;
5801;SDS011;2927;49.366;8.530;2023-11-18T13:35:11;3.63;;;1.20;;
5801;SDS011;2927;49.366;8.530;2023-11-18T13:37:39;3.67;;;1.53;;
5801;SDS011;2927;49.366;8.530;2023-11-18T13:40:07;6.17;;;1.47;;
5801;SDS011;2927;49.366;8.530;2023-11-18T13:42:32;1.63;;;1.60;;
5801;SDS011;2927;49.366;8.530;2023-11-18T13:45:04;2.43;;;1.73;;
5801;SDS011;2927;49.366;8.530;2023-11-18T13:47:34;6.17;;;2.30;;
5801;SDS011;2927;49.366;8.530;2023-11-18T13:50:01;3.90;;;2.03;;
5801;SDS011;2927;49.366;8.530;2023-11-18T13:52:35;5.10;;;3.07;;
5801;SDS011;2927;49.366;8.530;2023-11-18T13:55:03;6.97;;;3.50;;
5801;SDS011;2927;49.366;8.530;2023-11-18T13:57:31;4.20;;;2.47;;
5801;SDS011;2927;49.366;8.530;2023-11-18T13:59:57;1.57;;;1.00;;
5801;SDS011;2927;49.366;8.530;2023-11-18T14:02:24;4.57;;;1.50;;
5801;SDS011;2927;49.366;8.530;2023-11-18T14:04:49;1.30;;;1.20;;
5801;SDS011;2927;49.366;8.530;2023-11-18T14:07:15;3.23;;;1.20;;
5801;SDS011;2927;49.366;8.530;2023-11-18T14:09:42;4.83;;;1.87;;
5801;SDS011;2927;49.366;8.530;2023-11-18T14:12:11;4.87;;;2.70;;
5801;SDS011;2927;49.366;8.530;2023-11-18T14:14:38;6.90;;;2.60;;
5801;SDS011;2927;49.366;8.530;2023-11-18T14:17:05;5.33;;;2.73;;
5801;SDS011;2927;49.366;8.530;2023-11-18T14:19:35;7.20;;;3.90;;
5801;SDS011;2927;49.366;8.530;2023-11-18T14:22:02;5.57;;;2.70;;
5801;SDS011;2927;49.366;8.530;2023-11-18T14:24:32;3.43;;;2.50;;
5801;SDS011;2927;49.366;8.530;2023-11-18T14:26:58;3.17;;;2.53;;
5801;SDS011;2927;49.366;8.530;2023-11-18T14:29:24;1.97;;;1.87;;
5801;SDS011;2927;49.366;8.530;2023-11-18T14:31:49;8.63;;;3.10;;
5801;SDS011;2927;49.366;8.530;2023-11-18T14:34:15;3.87;;;2.20;;
5801;SDS011;2927;49.366;8.530;2023-11-18T14:36:41;1.37;;;1.27;;
5801;SDS011;2927;49.366;8.530;2023-11-18T14:39:08;3.30;;;2.33;;
5801;SDS011;2927;49.366;8.530;2023-11-18T14:41:42;3.67;;;2.50;;
5801;SDS011;2927;49.366;8.530;2023-11-18T14:44:08;2.23;;;1.80;;
5801;SDS011;2927;49.366;8.530;2023-11-18T14:46:34;5.00;;;2.80;;
5801;SDS011;2927;49.366;8.530;2023-11-18T14:49:00;11.20;;;4.33;;
5801;SDS011;2927;49.366;8.530;2023-11-18T14:51:26;8.33;;;3.70;;
5801;SDS011;2927;49.366;8.530;2023-11-18T14:53:51;4.40;;;3.50;;
5801;SDS011;2927;49.366;8.530;2023-11-18T14:56:18;5.07;;;2.90;;
5801;SDS011;2927;49.366;8.530;2023-11-18T14:58:44;2.23;;;2.03;;
5801;SDS011;2927;49.366;8.530;2023-11-18T15:01:14;10.97;;;2.93;;
5801;SDS011;2927;49.366;8.530;2023-11-18T15:03:40;5.47;;;3.07;;
5801;SDS011;2927;49.366;8.530;2023-11-18T15:06:05;5.50;;;3.37;;
5801;SDS011;2927;49.366;8.530;2023-11-18T15:08:31;6.80;;;3.73;;
5801;SDS011;2927;49.366;8.530;2023-11-18T15:10:57;3.20;;;2.90;;
5801;SDS011;2927;49.366;8.530;2023-11-18T15:13:25;7.93;;;3.10;;
5801;SDS011;2927;49.366;8.530;2023-11-18T15:15:51;4.53;;;2.70;;
5801;SDS011;2927;49.366;8.530;2023-11-18T15:18:17;3.10;;;2.30;;
5801;SDS011;2927;49.366;8.530;2023-11-18T15:20:44;6.10;;;2.90;;
5801;SDS011;2927;49.366;8.530;2023-11-18T15:23:10;8.63;;;3.60;;
5801;SDS011;2927;49.366;8.530;2023-11-18T15:25:36;3.53;;;2.73;;
5801;SDS011;2927;49.366;8.530;2023-11-18T15:28:03;5.13;;;3.37;;
5801;SDS011;2927;49.366;8.530;2023-11-18T15:30:30;4.83;;;3.70;;
5801;SDS011;2927;49.366;8.530;2023-11-18T15:32:56;3.60;;;3.20;;